createdAt,value
2022-09-28T00:00:36.933Z,83.76
2022-09-28T00:03:24.469Z,80.98
2022-09-28T00:06:12.009Z,82.14
2022-09-28T00:08:59.550Z,85.51
2022-09-28T00:11:47.099Z,87.52
2022-09-28T00:14:34.635Z,87.50
2022-09-28T00:17:22.192Z,87.13
2022-09-28T00:20:09.730Z,88.17
2022-09-28T00:22:57.369Z,89.26
2022-09-28T00:25:44.917Z,87.87
2022-09-28T00:28:32.473Z,87.55
2022-09-28T00:31:20.080Z,87.08
2022-09-28T00:34:07.710Z,89.38
2022-09-28T00:36:55.238Z,86.67
2022-09-28T00:39:42.813Z,89.40
2022-09-28T00:42:30.341Z,88.21
2022-09-28T00:45:17.899Z,88.49
2022-09-28T00:48:05.438Z,89.17
2022-09-28T00:50:53.071Z,88.91
2022-09-28T00:53:40.597Z,89.00
2022-09-28T00:56:28.162Z,88.98
2022-09-28T00:59:15.714Z,89.52
2022-09-28T01:02:03.382Z,89.87
2022-09-28T01:04:51.006Z,90.48
2022-09-28T01:07:38.663Z,90.26
2022-09-28T01:10:26.207Z,89.96
2022-09-28T01:13:13.842Z,88.37
2022-09-28T01:16:01.448Z,90.07
2022-09-28T01:18:49.071Z,90.77
2022-09-28T01:21:36.601Z,90.50
2022-09-28T01:24:26.149Z,90.07
2022-09-28T01:27:13.688Z,91.14
2022-09-28T01:30:03.215Z,91.29
2022-09-28T01:32:50.764Z,91.46
2022-09-28T01:35:38.293Z,93.09
2022-09-28T01:38:25.837Z,93.08
2022-09-28T01:41:13.406Z,92.87
2022-09-28T01:44:00.942Z,92.78
2022-09-28T01:46:48.507Z,93.33
2022-09-28T01:49:36.057Z,92.87
2022-09-28T01:52:23.580Z,94.66
2022-09-28T01:55:11.140Z,93.53
2022-09-28T01:57:58.688Z,92.50
2022-09-28T02:00:46.256Z,92.21
2022-09-28T02:03:33.847Z,91.86
2022-09-28T02:06:21.393Z,92.64
2022-09-28T02:09:09.052Z,94.12
2022-09-28T02:11:56.868Z,94.45
2022-09-28T02:14:44.518Z,95.26
2022-09-28T02:17:32.049Z,95.14
2022-09-28T02:20:19.612Z,96.30
2022-09-28T02:23:07.152Z,97.46
2022-09-28T02:25:54.700Z,95.18
2022-09-28T02:28:42.345Z,95.77
2022-09-28T02:31:29.917Z,95.85
2022-09-28T02:34:17.526Z,97.02
2022-09-28T02:37:05.059Z,97.38
2022-09-28T02:39:52.617Z,98.01
2022-09-28T02:42:40.157Z,96.59
2022-09-28T02:45:27.745Z,97.44
2022-09-28T02:48:15.299Z,97.98
2022-09-28T02:51:04.870Z,98.48
2022-09-28T02:53:52.414Z,97.57
2022-09-28T02:56:39.970Z,96.94
2022-09-28T02:59:27.534Z,97.53
2022-09-28T03:02:15.109Z,97.52
2022-09-28T03:05:02.728Z,97.05
2022-09-28T03:07:50.273Z,97.39
2022-09-28T03:10:37.823Z,97.47
2022-09-28T03:13:25.359Z,97.90
2022-09-28T03:16:12.975Z,98.82
2022-09-28T03:19:00.534Z,99.89
2022-09-28T03:21:48.198Z,98.92
2022-09-28T03:24:37.749Z,98.63
2022-09-28T03:27:25.317Z,98.96
2022-09-28T03:30:14.859Z,98.74
2022-09-28T03:33:02.437Z,99.48
2022-09-28T03:35:51.986Z,99.57
2022-09-28T03:38:39.560Z,99.52
2022-09-28T03:41:27.126Z,100.00
2022-09-28T03:44:14.701Z,98.95
2022-09-28T03:47:02.247Z,99.09
2022-09-28T03:49:49.800Z,98.93
2022-09-28T03:52:37.362Z,98.90
2022-09-28T03:55:24.927Z,98.75
2022-09-28T03:58:14.473Z,99.60
2022-09-28T04:01:02.071Z,99.47
2022-09-28T04:03:49.660Z,98.82
2022-09-28T04:06:37.235Z,99.48
2022-09-28T04:09:24.779Z,99.77
2022-09-28T04:12:12.353Z,99.53
2022-09-28T04:14:59.910Z,99.93
2022-09-28T04:17:47.473Z,100.00
2022-09-28T04:20:35.015Z,100.00
2022-09-28T04:23:22.669Z,99.85
2022-09-28T04:26:12.198Z,100.00
2022-09-28T04:29:03.984Z,99.58
2022-09-28T04:31:53.866Z,100.00
2022-09-28T04:34:44.091Z,98.72
2022-09-28T04:37:32.051Z,99.18
2022-09-28T04:40:19.646Z,99.29
2022-09-28T04:43:09.215Z,99.18
2022-09-28T04:45:56.845Z,100.00
2022-09-28T04:48:44.454Z,99.09
2022-09-28T04:51:34.104Z,100.00
2022-09-28T04:54:21.647Z,98.58
2022-09-28T04:57:09.198Z,99.02
2022-09-28T04:59:56.782Z,99.90
2022-09-28T05:02:44.422Z,98.67
2022-09-28T05:05:31.965Z,99.61
2022-09-28T05:08:19.534Z,99.21
2022-09-28T05:11:07.069Z,97.39
2022-09-28T05:13:54.631Z,97.86
2022-09-28T05:16:42.246Z,98.38
2022-09-28T05:19:29.918Z,97.26
2022-09-28T05:22:19.438Z,98.20
2022-09-28T05:25:07.017Z,99.23
2022-09-28T05:27:54.598Z,98.07
2022-09-28T05:30:42.131Z,98.28
2022-09-28T05:33:29.673Z,98.18
2022-09-28T05:36:17.255Z,99.20
2022-09-28T05:39:04.789Z,99.42
2022-09-28T05:41:52.364Z,99.29
2022-09-28T05:44:39.912Z,100.00
2022-09-28T05:47:27.458Z,98.51
2022-09-28T05:50:15.010Z,98.53
2022-09-28T05:53:02.579Z,99.21
2022-09-28T05:55:50.133Z,99.61
2022-09-28T05:58:37.777Z,98.04
2022-09-28T06:01:25.383Z,97.41
2022-09-28T06:04:12.959Z,98.62
2022-09-28T06:07:00.530Z,98.85
2022-09-28T06:09:48.107Z,97.84
2022-09-28T06:12:35.652Z,97.63
2022-09-28T06:15:23.209Z,97.87
2022-09-28T06:18:10.736Z,98.00
2022-09-28T06:20:58.399Z,97.06
2022-09-28T06:23:49.408Z,97.08
2022-09-28T06:26:37.205Z,98.18
2022-09-28T06:29:24.731Z,96.31
2022-09-28T06:32:12.282Z,98.49
2022-09-28T06:34:59.811Z,97.61
2022-09-28T06:37:47.852Z,97.85
2022-09-28T06:40:37.475Z,97.37
2022-09-28T06:43:25.061Z,96.88
2022-09-28T06:46:12.717Z,96.43
2022-09-28T06:49:00.331Z,98.06
2022-09-28T06:51:47.881Z,98.48
2022-09-28T06:54:35.425Z,98.64
2022-09-28T06:57:23.086Z,98.28
2022-09-28T07:00:10.624Z,98.71
2022-09-28T07:02:58.156Z,98.06
2022-09-28T07:05:45.686Z,98.31
2022-09-28T07:08:33.238Z,98.04
2022-09-28T07:11:20.784Z,98.38
2022-09-28T07:14:09.375Z,97.42
2022-09-28T07:17:12.580Z,96.66
2022-09-28T07:20:11.705Z,98.33
2022-09-28T07:23:14.516Z,97.64
2022-09-28T07:26:08.571Z,97.29
2022-09-28T07:28:56.452Z,97.22
2022-09-28T07:31:43.995Z,97.48
2022-09-28T07:34:43.608Z,96.51
2022-09-28T07:37:31.168Z,95.23
2022-09-28T07:40:18.794Z,96.37
2022-09-28T07:43:06.365Z,95.19
2022-09-28T07:45:54.047Z,97.14
2022-09-28T07:48:41.700Z,97.87
2022-09-28T07:51:29.239Z,95.91
2022-09-28T07:54:16.761Z,97.44
2022-09-28T07:57:04.307Z,96.95
2022-09-28T07:59:51.890Z,96.50
2022-09-28T08:02:39.503Z,96.99
2022-09-28T08:05:27.094Z,96.41
2022-09-28T08:08:14.720Z,97.04
2022-09-28T08:11:02.268Z,96.11
2022-09-28T08:13:49.832Z,95.76
2022-09-28T08:19:29.905Z,96.03
2022-09-28T08:22:19.415Z,95.87
2022-09-28T08:25:06.988Z,96.17
2022-09-28T08:27:56.529Z,95.74
2022-09-28T08:30:44.154Z,97.29
2022-09-28T08:33:31.741Z,97.52
2022-09-28T08:36:19.315Z,97.62
2022-09-28T08:39:06.856Z,97.42
2022-09-28T08:41:54.415Z,97.43
2022-09-28T08:44:44.916Z,98.07
2022-09-28T08:47:32.506Z,97.52
2022-09-28T08:50:20.056Z,96.93
2022-09-28T08:53:07.913Z,98.00
2022-09-28T08:55:55.477Z,97.82
2022-09-28T08:58:43.075Z,96.60
2022-09-28T09:01:30.700Z,97.48
2022-09-28T09:04:18.409Z,97.37
2022-09-28T09:07:06.102Z,97.30
2022-09-28T09:09:53.640Z,96.81
2022-09-28T09:12:41.228Z,96.31
2022-09-28T09:15:28.817Z,96.49
2022-09-28T09:18:19.820Z,97.17
2022-09-28T09:21:07.753Z,98.13
2022-09-28T09:23:55.326Z,97.51
2022-09-28T09:26:42.873Z,97.09
2022-09-28T09:29:30.420Z,98.12
2022-09-28T09:32:17.959Z,95.77
2022-09-28T09:35:05.496Z,98.88
2022-09-28T09:37:58.344Z,98.08
2022-09-28T09:40:48.239Z,98.37
2022-09-28T09:43:35.821Z,97.35
2022-09-28T09:46:23.423Z,96.93
2022-09-28T09:49:11.028Z,97.41
2022-09-28T09:51:58.561Z,96.54
2022-09-28T09:54:46.115Z,95.98
2022-09-28T09:57:33.652Z,95.48
2022-09-28T10:00:22.327Z,95.27
2022-09-28T10:03:09.860Z,94.74
2022-09-28T10:05:57.410Z,93.94
2022-09-28T10:08:44.944Z,94.56
2022-09-28T10:11:32.495Z,94.98
2022-09-28T10:14:20.033Z,96.20
2022-09-28T10:17:07.653Z,96.38
2022-09-28T10:19:55.215Z,96.83
2022-09-28T10:22:42.769Z,96.45
2022-09-28T10:25:30.309Z,95.56
2022-09-28T10:28:17.859Z,94.88
2022-09-28T10:31:05.587Z,95.61
2022-09-28T10:33:53.218Z,96.75
2022-09-28T10:36:40.741Z,96.61
2022-09-28T10:39:28.309Z,97.65
2022-09-28T10:42:15.842Z,96.65
2022-09-28T10:45:03.380Z,96.06
2022-09-28T10:47:50.920Z,93.91
2022-09-28T10:50:38.480Z,94.14
2022-09-28T10:53:26.008Z,93.06
2022-09-28T10:56:13.572Z,91.92
2022-09-28T10:59:01.113Z,91.43
2022-09-28T11:01:48.794Z,91.14
2022-09-28T11:04:36.363Z,90.46
2022-09-28T11:07:23.925Z,89.58
2022-09-28T11:10:11.481Z,88.95
2022-09-28T11:12:59.089Z,87.27
2022-09-28T11:15:46.649Z,85.51
2022-09-28T11:18:34.288Z,86.39
2022-09-28T11:21:23.809Z,86.28
2022-09-28T11:24:14.400Z,84.06
2022-09-28T11:27:04.284Z,86.22
2022-09-28T11:29:51.813Z,83.22
2022-09-28T11:32:39.452Z,83.61
2022-09-28T11:35:26.967Z,87.28
2022-09-28T11:38:14.515Z,90.34
2022-09-28T11:41:02.078Z,89.04
2022-09-28T11:43:49.653Z,90.10
2022-09-28T11:46:37.190Z,91.97
2022-09-28T11:49:24.716Z,93.01
2022-09-28T11:52:12.245Z,95.14
2022-09-28T11:54:59.821Z,96.57
2022-09-28T11:57:47.357Z,97.08
2022-09-28T12:00:34.905Z,96.86
2022-09-28T12:03:22.586Z,97.03
2022-09-28T12:06:10.275Z,97.92
2022-09-28T12:08:57.806Z,96.82
2022-09-28T12:11:45.363Z,97.76
2022-09-28T12:14:32.905Z,96.12
2022-09-28T12:17:20.597Z,96.92
2022-09-28T12:20:08.205Z,99.51
2022-09-28T12:22:55.868Z,97.75
2022-09-28T12:25:43.394Z,97.44
2022-09-28T12:28:30.961Z,98.73
2022-09-28T12:31:18.562Z,96.36
2022-09-28T12:34:06.186Z,96.36
2022-09-28T12:36:53.738Z,97.40
2022-09-28T12:39:56.881Z,96.17
2022-09-28T12:42:44.878Z,93.59
2022-09-28T12:45:38.712Z,95.73
2022-09-28T12:48:30.749Z,95.48
2022-09-28T12:51:18.326Z,94.75
2022-09-28T12:54:05.872Z,94.65
2022-09-28T12:56:53.431Z,97.06
2022-09-28T12:59:40.966Z,96.23
2022-09-28T13:02:28.592Z,95.82
2022-09-28T13:05:16.213Z,96.50
2022-09-28T13:08:03.767Z,94.46
2022-09-28T13:10:51.572Z,95.99
2022-09-28T13:13:39.192Z,95.57
2022-09-28T13:16:26.810Z,95.15
2022-09-28T13:19:14.460Z,94.00
2022-09-28T13:22:02.085Z,95.60
2022-09-28T13:24:49.639Z,96.57
2022-09-28T13:27:37.249Z,95.34
2022-09-28T13:30:24.831Z,92.59
2022-09-28T13:33:12.407Z,94.00
2022-09-28T13:35:59.949Z,92.67
2022-09-28T13:38:47.521Z,94.14
2022-09-28T13:41:35.073Z,95.00
2022-09-28T13:44:22.642Z,94.88
2022-09-28T13:47:10.177Z,96.00
2022-09-28T13:49:57.791Z,94.08
2022-09-28T13:52:45.418Z,95.37
2022-09-28T13:55:33.025Z,96.52
2022-09-28T13:58:20.625Z,96.08
2022-09-28T14:01:08.280Z,97.01
2022-09-28T14:03:55.871Z,95.96
2022-09-28T14:06:47.484Z,96.79
2022-09-28T14:09:37.067Z,96.56
2022-09-28T14:12:24.624Z,97.27
2022-09-28T14:15:12.188Z,97.22
2022-09-28T14:17:59.761Z,97.89
2022-09-28T14:20:47.294Z,98.90
2022-09-28T14:23:34.849Z,98.52
2022-09-28T14:26:22.393Z,100.00
2022-09-28T14:29:10.294Z,100.00
2022-09-28T14:31:57.872Z,98.81
2022-09-28T14:34:45.429Z,97.13
2022-09-28T14:37:33.011Z,97.21
2022-09-28T14:40:20.634Z,98.61
2022-09-28T14:43:08.211Z,97.85
2022-09-28T14:45:55.913Z,99.05
2022-09-28T14:48:43.473Z,98.58
2022-09-28T14:51:31.056Z,97.89
2022-09-28T14:54:18.632Z,97.92
2022-09-28T14:57:06.238Z,96.60
2022-09-28T14:59:53.781Z,96.09
2022-09-28T15:02:41.331Z,95.12
2022-09-28T15:05:28.986Z,96.09
2022-09-28T15:08:16.636Z,97.51
2022-09-28T15:11:04.173Z,96.24
2022-09-28T15:13:51.729Z,96.25
2022-09-28T15:16:39.270Z,95.90
2022-09-28T15:19:26.843Z,96.43
2022-09-28T15:22:14.405Z,96.18
2022-09-28T15:25:02.893Z,96.37
2022-09-28T15:27:50.661Z,95.36
2022-09-28T15:30:38.295Z,97.62
2022-09-28T15:33:25.880Z,98.18
2022-09-28T15:36:13.443Z,97.44
2022-09-28T15:39:00.977Z,96.80
2022-09-28T15:41:48.545Z,95.37
2022-09-28T15:44:36.092Z,95.51
2022-09-28T15:47:23.651Z,94.89
2022-09-28T15:50:11.198Z,94.92
2022-09-28T15:52:58.730Z,95.72
2022-09-28T15:55:46.273Z,95.90
2022-09-28T15:58:33.866Z,95.88
2022-09-28T16:01:21.429Z,93.96
2022-09-28T16:04:09.081Z,96.41
2022-09-28T16:06:56.636Z,96.08
2022-09-28T16:09:44.186Z,94.06
2022-09-28T16:12:31.753Z,94.86
2022-09-28T16:15:21.304Z,95.08
2022-09-28T16:18:08.831Z,96.36
2022-09-28T16:20:56.367Z,93.71
2022-09-28T16:23:43.916Z,96.08
2022-09-28T16:26:31.452Z,93.88
2022-09-28T16:29:19.072Z,94.08
2022-09-28T16:32:06.681Z,92.03
2022-09-28T16:34:54.237Z,93.64
2022-09-28T16:37:41.804Z,94.89
2022-09-28T16:40:29.372Z,98.47
2022-09-28T16:43:17.069Z,99.34
2022-09-28T16:46:04.644Z,99.08
2022-09-28T16:48:52.240Z,100.00
2022-09-28T16:51:39.751Z,100.00
2022-09-28T16:54:27.302Z,100.00
2022-09-28T16:57:14.843Z,100.00
2022-09-28T17:00:02.404Z,100.00
2022-09-28T17:02:50.005Z,100.00
2022-09-28T17:05:37.563Z,98.96
2022-09-28T17:08:25.116Z,97.55
2022-09-28T17:11:17.024Z,97.93
2022-09-28T17:14:07.885Z,98.55
2022-09-28T17:17:08.117Z,98.94
2022-09-28T17:19:58.108Z,98.90
2022-09-28T17:22:45.646Z,98.42
2022-09-28T17:25:33.195Z,98.22
2022-09-28T17:28:20.712Z,98.83
2022-09-28T17:31:19.785Z,100.00
2022-09-28T17:34:07.367Z,94.56
2022-09-28T17:36:54.930Z,91.08
2022-09-28T17:39:42.462Z,87.85
2022-09-28T17:42:30.008Z,86.36
2022-09-28T17:45:17.550Z,90.90
2022-09-28T17:48:05.099Z,91.49
2022-09-28T17:50:52.633Z,89.86
2022-09-28T17:53:40.194Z,89.10
2022-09-28T17:56:31.925Z,92.43
2022-09-28T17:59:22.075Z,94.87
2022-09-28T18:02:09.669Z,92.20
2022-09-28T18:04:57.656Z,94.70
2022-09-28T18:07:47.604Z,92.91
2022-09-28T18:10:35.443Z,92.01
2022-09-28T18:13:23.119Z,91.49
2022-09-28T18:16:10.713Z,90.03
2022-09-28T18:18:58.409Z,89.58
2022-09-28T18:21:47.916Z,82.51
2022-09-28T18:24:35.466Z,80.14
2022-09-28T18:27:22.992Z,76.85
2022-09-28T18:30:12.556Z,79.06
2022-09-28T18:33:00.083Z,79.51
2022-09-28T18:35:47.635Z,76.55
2022-09-28T18:38:35.176Z,80.39
2022-09-28T18:41:22.693Z,85.23
2022-09-28T18:44:10.238Z,87.93
2022-09-28T18:46:57.785Z,88.22
2022-09-28T18:49:46.813Z,86.05
2022-09-28T18:52:34.488Z,80.97
2022-09-28T18:55:22.034Z,77.43
2022-09-28T18:58:09.592Z,81.99
2022-09-28T19:01:13.504Z,83.23
2022-09-28T19:04:04.625Z,83.57
2022-09-28T19:06:52.167Z,78.20
2022-09-28T19:09:39.725Z,80.01
2022-09-28T19:12:29.251Z,77.29
2022-09-28T19:15:16.780Z,74.50
2022-09-28T19:18:04.313Z,71.92
2022-09-28T19:20:51.949Z,70.20
2022-09-28T19:23:39.488Z,68.33
2022-09-28T19:26:27.058Z,71.34
2022-09-28T19:29:14.674Z,69.53
2022-09-28T19:32:02.320Z,68.37
2022-09-28T19:34:49.856Z,68.48
2022-09-28T19:37:37.409Z,67.95
2022-09-28T19:40:24.956Z,70.23
2022-09-28T19:43:12.519Z,66.66
2022-09-28T19:46:00.237Z,65.97
2022-09-28T19:48:47.793Z,66.36
2022-09-28T19:51:35.426Z,67.31
2022-09-28T19:54:24.932Z,68.35
2022-09-28T19:57:12.478Z,69.40
2022-09-28T20:00:02.701Z,69.30
2022-09-28T20:02:50.995Z,70.74
2022-09-28T20:05:38.565Z,71.14
2022-09-28T20:08:26.092Z,70.29
2022-09-28T20:11:13.674Z,67.81
2022-09-28T20:14:01.205Z,68.39
2022-09-28T20:16:48.759Z,66.96
2022-09-28T20:19:36.283Z,67.91
2022-09-28T20:22:23.846Z,68.77
2022-09-28T20:25:11.384Z,69.71
2022-09-28T20:27:58.929Z,73.36
2022-09-28T20:30:46.535Z,73.20
2022-09-28T20:33:34.101Z,73.48
2022-09-28T20:36:21.623Z,72.69
2022-09-28T20:39:09.173Z,75.87
2022-09-28T20:41:56.726Z,74.35
2022-09-28T20:44:44.268Z,74.89
2022-09-28T20:47:31.805Z,77.63
2022-09-28T20:50:22.024Z,76.53
2022-09-28T20:53:09.642Z,76.81
2022-09-28T20:55:57.188Z,75.42
2022-09-28T20:58:44.717Z,75.81
2022-09-28T21:01:32.392Z,76.83
2022-09-28T21:04:20.059Z,77.83
2022-09-28T21:07:07.859Z,77.79
2022-09-28T21:09:55.402Z,77.97
2022-09-28T21:12:42.955Z,80.89
2022-09-28T21:15:30.547Z,81.81
2022-09-28T21:18:18.130Z,83.11
2022-09-28T21:21:05.667Z,86.17
2022-09-28T21:23:53.215Z,85.95
2022-09-28T21:26:40.754Z,86.12
2022-09-28T21:29:28.299Z,85.69
2022-09-28T21:32:15.829Z,83.40
2022-09-28T21:35:03.461Z,82.46
2022-09-28T21:37:52.993Z,80.95
2022-09-28T21:40:40.558Z,82.50
2022-09-28T21:43:30.093Z,79.47
2022-09-28T21:46:17.771Z,79.31
2022-09-28T21:49:05.364Z,79.60
2022-09-28T21:51:52.901Z,79.29
2022-09-28T21:54:40.432Z,84.18
2022-09-28T21:57:27.965Z,84.32
2022-09-28T22:00:15.551Z,85.55
2022-09-28T22:03:03.125Z,83.50
2022-09-28T22:05:50.694Z,83.51
2022-09-28T22:08:38.253Z,81.68
2022-09-28T22:11:25.817Z,82.12
2022-09-28T22:14:13.373Z,84.68
2022-09-28T22:17:00.921Z,85.35
2022-09-28T22:19:48.448Z,85.77
2022-09-28T22:22:36.006Z,82.00
2022-09-28T22:25:23.554Z,82.51
2022-09-28T22:28:11.200Z,81.31
2022-09-28T22:30:58.771Z,78.95
2022-09-28T22:33:46.360Z,77.74
2022-09-28T22:36:33.871Z,79.15
2022-09-28T22:39:21.530Z,78.28
2022-09-28T22:42:09.068Z,79.10
2022-09-28T22:44:56.624Z,79.97
2022-09-28T22:47:44.154Z,83.55
2022-09-28T22:50:31.695Z,82.84
2022-09-28T22:53:19.239Z,83.13
2022-09-28T22:56:06.786Z,84.81
2022-09-28T22:58:54.328Z,84.76
2022-09-28T23:01:41.891Z,83.37
2022-09-28T23:04:29.514Z,83.61
2022-09-28T23:07:17.086Z,83.94
2022-09-28T23:10:04.623Z,82.62
2022-09-28T23:12:52.178Z,82.44
2022-09-28T23:15:39.729Z,78.33
2022-09-28T23:18:27.331Z,79.37
2022-09-28T23:21:14.883Z,79.84
2022-09-28T23:24:02.420Z,79.15
2022-09-28T23:26:49.967Z,81.76
2022-09-28T23:29:37.493Z,83.58
2022-09-28T23:32:28.559Z,82.61
2022-09-28T23:35:18.738Z,80.61
2022-09-28T23:38:06.283Z,80.99
2022-09-28T23:40:53.855Z,86.51
2022-09-28T23:43:41.465Z,84.73
2022-09-28T23:46:29.059Z,82.92
2022-09-28T23:49:16.719Z,82.57
2022-09-28T23:52:04.274Z,83.46
2022-09-28T23:54:53.850Z,85.40
2022-09-28T23:57:41.400Z,85.50
